createdAt,value
2023-10-09T00:00:52.141Z,101413.97
2023-10-09T00:03:56.061Z,101412.28
2023-10-09T00:07:00.844Z,101416.88
2023-10-09T00:10:12.972Z,101410.31
2023-10-09T00:13:15.565Z,101404.00
2023-10-09T00:16:47.105Z,101395.41
2023-10-09T00:19:52.820Z,101406.41
2023-10-09T00:22:57.960Z,101405.72
2023-10-09T00:26:09.801Z,101401.09
2023-10-09T00:29:17.654Z,101395.28
2023-10-09T00:32:23.987Z,101390.69
2023-10-09T00:35:38.258Z,101392.81
2023-10-09T00:38:46.550Z,101384.94
2023-10-09T00:41:49.388Z,101380.59
2023-10-09T00:44:52.377Z,101379.59
2023-10-09T00:48:00.462Z,101386.03
2023-10-09T00:51:14.156Z,101386.47
2023-10-09T00:54:20.926Z,101383.69
2023-10-09T00:57:25.831Z,101387.28
2023-10-09T01:00:34.515Z,101385.13
2023-10-09T01:03:41.859Z,101384.88
2023-10-09T01:07:06.971Z,101386.13
2023-10-09T01:10:11.018Z,101387.59
2023-10-09T01:13:14.336Z,101372.09
2023-10-09T01:16:18.504Z,101382.00
2023-10-09T01:19:25.557Z,101390.38
2023-10-09T01:22:28.659Z,101391.44
2023-10-09T01:25:43.161Z,101397.75
2023-10-09T01:28:47.270Z,101396.78
2023-10-09T01:31:58.151Z,101390.97
2023-10-09T01:35:01.250Z,101398.72
2023-10-09T01:38:11.456Z,101388.69
2023-10-09T01:41:20.892Z,101392.53
2023-10-09T01:44:23.796Z,101392.66
2023-10-09T01:47:32.972Z,101385.91
2023-10-09T01:50:36.714Z,101385.63
2023-10-09T01:53:39.618Z,101401.03
2023-10-09T01:56:47.291Z,101403.31
2023-10-09T01:59:51.549Z,101401.97
2023-10-09T02:02:55.237Z,101410.94
2023-10-09T02:06:01.351Z,101417.22
2023-10-09T02:09:07.714Z,101420.25
2023-10-09T02:12:10.623Z,101415.88
2023-10-09T02:15:17.042Z,101411.03
2023-10-09T02:18:41.767Z,101406.41
2023-10-09T02:21:46.144Z,101415.94
2023-10-09T02:24:50.211Z,101414.38
2023-10-09T02:27:55.710Z,101399.84
2023-10-09T02:31:02.036Z,101394.78
2023-10-09T02:34:08.712Z,101372.03
2023-10-09T02:37:31.469Z,101377.81
2023-10-09T02:40:42.821Z,101392.97
2023-10-09T02:43:49.079Z,101379.31
2023-10-09T02:46:51.964Z,101363.81
2023-10-09T02:50:01.821Z,101358.63
2023-10-09T02:53:10.343Z,101365.47
2023-10-09T02:56:13.896Z,101359.66
2023-10-09T02:59:16.844Z,101349.00
2023-10-09T03:02:20.528Z,101364.44
2023-10-09T03:05:25.244Z,101343.34
2023-10-09T03:08:28.202Z,101337.84
2023-10-09T03:11:33.477Z,101336.13
2023-10-09T03:14:42.439Z,101334.88
2023-10-09T03:17:46.104Z,101349.66
2023-10-09T03:20:49.013Z,101363.63
2023-10-09T03:23:51.831Z,101343.09
2023-10-09T03:26:57.112Z,101350.44
2023-10-09T03:30:01.058Z,101349.03
2023-10-09T03:33:05.516Z,101347.97
2023-10-09T03:36:11.972Z,101350.56
2023-10-09T03:39:34.663Z,101340.50
2023-10-09T03:42:38.210Z,101376.88
2023-10-09T03:46:01.875Z,101344.63
2023-10-09T03:49:12.746Z,101338.34
2023-10-09T03:52:18.605Z,101340.16
2023-10-09T03:55:23.266Z,101337.84
2023-10-09T03:58:26.704Z,101334.72
2023-10-09T04:01:29.916Z,101341.47
2023-10-09T04:04:34.829Z,101344.59
2023-10-09T04:07:38.095Z,101333.38
2023-10-09T04:11:07.268Z,101335.47
2023-10-09T04:14:23.021Z,101335.06
2023-10-09T04:17:25.941Z,101339.47
2023-10-09T04:20:31.737Z,101333.31
2023-10-09T04:23:57.796Z,101337.06
2023-10-09T04:27:00.388Z,101334.22
2023-10-09T04:30:03.023Z,101321.19
2023-10-09T04:33:30.348Z,101314.28
2023-10-09T04:36:47.277Z,101309.00
2023-10-09T04:39:51.308Z,101317.34
2023-10-09T04:43:00.171Z,101311.97
2023-10-09T04:46:13.452Z,101305.13
2023-10-09T04:49:28.598Z,101312.09
2023-10-09T04:52:31.277Z,101307.44
2023-10-09T04:55:39.847Z,101305.63
2023-10-09T04:58:44.699Z,101291.34
2023-10-09T05:01:59.052Z,101292.88
2023-10-09T05:05:18.084Z,101291.88
2023-10-09T05:08:21.008Z,101284.41
2023-10-09T05:11:54.392Z,101262.44
2023-10-09T05:15:14.669Z,101270.00
2023-10-09T05:18:17.560Z,101300.78
2023-10-09T05:21:32.876Z,101278.84
2023-10-09T05:24:47.530Z,101289.06
2023-10-09T05:27:53.094Z,101268.72
2023-10-09T05:31:09.550Z,101252.28
2023-10-09T05:34:13.598Z,101269.34
2023-10-09T05:37:19.104Z,101281.09
2023-10-09T05:40:32.193Z,101287.63
2023-10-09T05:43:53.049Z,101285.94
2023-10-09T05:47:14.630Z,101316.38
2023-10-09T05:50:18.184Z,101320.63
2023-10-09T05:53:56.039Z,101307.94
2023-10-09T05:57:21.954Z,101287.00
2023-10-09T06:00:44.389Z,101264.13
2023-10-09T06:03:50.294Z,101265.84
2023-10-09T06:07:12.123Z,101280.84
2023-10-09T06:10:33.983Z,101273.56
2023-10-09T06:13:39.035Z,101261.72
2023-10-09T06:16:44.050Z,101253.25
2023-10-09T06:19:50.051Z,101252.63
2023-10-09T06:22:58.532Z,101254.22
2023-10-09T06:26:22.068Z,101236.28
2023-10-09T06:29:36.629Z,101239.81
2023-10-09T06:32:50.745Z,101233.63
2023-10-09T06:35:55.988Z,101241.56
2023-10-09T06:39:17.783Z,101240.84
2023-10-09T06:42:45.804Z,101250.91
2023-10-09T06:45:59.891Z,101254.69
2023-10-09T06:49:24.189Z,101253.34
2023-10-09T06:52:46.952Z,101250.53
2023-10-09T06:55:50.107Z,101245.97
2023-10-09T06:58:56.302Z,101235.44
2023-10-09T07:02:10.870Z,101236.16
2023-10-09T07:05:18.838Z,101225.53
2023-10-09T07:08:33.459Z,101215.69
2023-10-09T07:11:50.269Z,101219.94
2023-10-09T07:15:08.600Z,101216.78
2023-10-09T07:18:21.193Z,101225.84
2023-10-09T07:21:29.337Z,101216.16
2023-10-09T07:25:01.434Z,101204.28
2023-10-09T07:28:19.424Z,101203.78
2023-10-09T07:31:27.781Z,101175.47
2023-10-09T07:34:32.270Z,101150.75
2023-10-09T07:37:39.166Z,101139.88
2023-10-09T07:41:20.547Z,101127.19
2023-10-09T07:44:40.304Z,101122.16
2023-10-09T07:48:01.207Z,101109.97
2023-10-09T07:51:06.666Z,101106.34
2023-10-09T07:54:09.891Z,101105.75
2023-10-09T07:57:18.885Z,101125.69
2023-10-09T08:00:37.514Z,101107.22
2023-10-09T08:03:40.456Z,101118.00
2023-10-09T08:07:04.348Z,101124.78
2023-10-09T08:10:15.388Z,101118.91
2023-10-09T08:13:41.118Z,101124.84
2023-10-09T08:16:44.271Z,101099.50
2023-10-09T08:19:54.883Z,101098.41
2023-10-09T08:22:57.747Z,101090.50
2023-10-09T08:26:15.743Z,101080.31
2023-10-09T08:29:19.043Z,101082.25
2023-10-09T08:35:49.370Z,101079.41
2023-10-09T08:38:59.384Z,101074.03
2023-10-09T08:42:06.391Z,101073.16
2023-10-09T08:45:10.301Z,101054.47
2023-10-09T08:48:19.400Z,101061.81
2023-10-09T08:51:24.250Z,101052.38
2023-10-09T08:54:27.046Z,101060.16
2023-10-09T08:57:32.026Z,101058.63
2023-10-09T09:00:34.613Z,101058.34
2023-10-09T09:03:42.323Z,101048.34
2023-10-09T09:06:45.339Z,101041.31
2023-10-09T09:10:20.940Z,101023.34
2023-10-09T09:13:23.737Z,101021.16
2023-10-09T09:16:33.241Z,101019.94
2023-10-09T09:19:39.334Z,101024.38
2023-10-09T09:22:54.331Z,101010.63
2023-10-09T09:26:11.407Z,101015.75
2023-10-09T09:29:19.123Z,101006.59
2023-10-09T09:32:39.712Z,100993.09
2023-10-09T09:35:58.617Z,100977.97
2023-10-09T09:39:20.508Z,100966.84
2023-10-09T09:42:28.748Z,100978.53
2023-10-09T09:45:37.056Z,100962.41
2023-10-09T09:48:46.331Z,100959.81
2023-10-09T09:51:52.340Z,100954.03
2023-10-09T09:54:59.800Z,100956.97
2023-10-09T09:58:09.397Z,100962.63
2023-10-09T10:01:18.308Z,100951.97
2023-10-09T10:04:23.142Z,100940.66
2023-10-09T10:07:30.323Z,100935.50
2023-10-09T10:10:48.973Z,100930.69
2023-10-09T10:13:51.798Z,100884.25
2023-10-09T10:17:21.520Z,100878.03
2023-10-09T10:20:24.436Z,100844.66
2023-10-09T10:23:33.639Z,100862.63
2023-10-09T10:26:37.390Z,100854.59
2023-10-09T10:29:42.483Z,100867.06
2023-10-09T10:33:18.947Z,100843.84
2023-10-09T10:36:26.320Z,100804.16
2023-10-09T10:39:44.023Z,100791.84
2023-10-09T10:43:08.336Z,100802.16
2023-10-09T10:46:31.401Z,100795.31
2023-10-09T10:49:38.237Z,100789.44
2023-10-09T10:52:43.897Z,100768.81
2023-10-09T10:56:27.818Z,100760.75
2023-10-09T10:59:42.973Z,100782.72
2023-10-09T11:02:49.516Z,100780.47
2023-10-09T11:05:53.205Z,100760.69
2023-10-09T11:08:58.163Z,100787.06
2023-10-09T11:12:36.126Z,100763.56
2023-10-09T11:15:58.998Z,100752.50
2023-10-09T11:19:13.727Z,100723.75
2023-10-09T11:22:37.577Z,100807.81
2023-10-09T11:25:52.366Z,100827.94
2023-10-09T11:29:24.827Z,100777.16
2023-10-09T11:32:33.745Z,100707.41
2023-10-09T11:35:37.213Z,100770.22
2023-10-09T11:38:40.254Z,100797.13
2023-10-09T11:41:43.966Z,100790.59
2023-10-09T11:44:47.364Z,100798.06
2023-10-09T11:48:20.856Z,100878.38
2023-10-09T11:51:23.466Z,100840.16
2023-10-09T11:54:34.372Z,100776.91
2023-10-09T11:57:37.122Z,100771.28
2023-10-09T12:00:48.544Z,100778.41
2023-10-09T12:03:52.416Z,100729.63
2023-10-09T12:07:07.452Z,100714.84
2023-10-09T12:10:13.968Z,100719.44
2023-10-09T12:13:17.158Z,100723.78
2023-10-09T12:16:20.223Z,100728.84
2023-10-09T12:19:24.638Z,100726.28
2023-10-09T12:22:28.711Z,100711.72
2023-10-09T12:25:32.872Z,100709.22
2023-10-09T12:28:35.802Z,100711.53
2023-10-09T12:31:38.621Z,100699.00
2023-10-09T12:34:43.609Z,100695.25
2023-10-09T12:37:47.349Z,100695.69
2023-10-09T12:40:53.629Z,100705.00
2023-10-09T12:44:00.081Z,100688.56
2023-10-09T12:47:05.993Z,100681.78
2023-10-09T12:50:15.012Z,100703.50
2023-10-09T12:53:20.070Z,100714.63
2023-10-09T12:56:23.961Z,100714.16
2023-10-09T12:59:26.854Z,100711.38
2023-10-09T13:02:29.955Z,100703.28
2023-10-09T13:05:33.656Z,100704.50
2023-10-09T13:08:36.484Z,100706.22
2023-10-09T13:11:41.785Z,100709.91
2023-10-09T13:14:44.346Z,100705.88
2023-10-09T13:17:47.245Z,100712.72
2023-10-09T13:20:50.143Z,100694.97
2023-10-09T13:23:55.828Z,100689.94
2023-10-09T13:27:05.708Z,100688.59
2023-10-09T13:30:10.438Z,100682.59
2023-10-09T13:33:18.469Z,100687.63
2023-10-09T13:36:28.259Z,100693.03
2023-10-09T13:39:38.748Z,100685.50
2023-10-09T13:42:42.806Z,100692.38
2023-10-09T13:45:51.215Z,100689.03
2023-10-09T13:48:54.441Z,100704.81
2023-10-09T13:51:58.118Z,100688.88
2023-10-09T13:55:16.393Z,100692.19
2023-10-09T13:58:22.190Z,100685.06
2023-10-09T14:01:33.730Z,100687.72
2023-10-09T14:04:37.817Z,100666.56
2023-10-09T14:07:42.185Z,100658.53
2023-10-09T14:10:49.656Z,100655.16
2023-10-09T14:14:06.106Z,100632.97
2023-10-09T14:17:21.233Z,100646.94
2023-10-09T14:20:32.977Z,100642.75
2023-10-09T14:23:36.436Z,100630.31
2023-10-09T14:26:39.247Z,100622.09
2023-10-09T14:29:43.880Z,100638.06
2023-10-09T14:32:52.765Z,100637.06
2023-10-09T14:35:59.415Z,100649.47
2023-10-09T14:39:02.528Z,100666.78
2023-10-09T14:42:10.810Z,100653.50
2023-10-09T14:45:17.704Z,100661.19
2023-10-09T14:48:27.110Z,100660.19
2023-10-09T14:51:30.764Z,100655.31
2023-10-09T14:54:33.671Z,100652.16
2023-10-09T14:57:36.193Z,100642.59
2023-10-09T15:00:47.762Z,100648.09
2023-10-09T15:03:54.274Z,100633.69
2023-10-09T15:06:58.282Z,100642.25
2023-10-09T15:10:05.160Z,100645.41
2023-10-09T15:13:07.723Z,100647.06
2023-10-09T15:16:12.322Z,100640.41
2023-10-09T15:19:17.643Z,100634.03
2023-10-09T15:22:22.613Z,100619.94
2023-10-09T15:25:25.553Z,100620.28
2023-10-09T15:28:33.644Z,100621.91
2023-10-09T15:31:41.504Z,100618.91
2023-10-09T15:34:45.340Z,100623.09
2023-10-09T15:37:48.319Z,100628.34
2023-10-09T15:40:51.254Z,100616.69
2023-10-09T15:43:53.895Z,100616.09
2023-10-09T15:47:01.347Z,100609.94
2023-10-09T15:50:05.263Z,100612.72
2023-10-09T15:53:11.541Z,100593.00
2023-10-09T15:56:15.179Z,100608.97
2023-10-09T15:59:18.245Z,100620.38
2023-10-09T16:02:21.901Z,100612.47
2023-10-09T16:05:27.107Z,100595.69
2023-10-09T16:08:32.913Z,100608.47
2023-10-09T16:11:35.555Z,100593.50
2023-10-09T16:14:38.924Z,100616.56
2023-10-09T16:17:45.064Z,100616.06
2023-10-09T16:20:48.671Z,100616.91
2023-10-09T16:23:53.069Z,100610.50
2023-10-09T16:26:56.489Z,100620.78
2023-10-09T16:29:59.327Z,100626.06
2023-10-09T16:33:06.574Z,100624.19
2023-10-09T16:36:10.579Z,100630.94
2023-10-09T16:39:19.967Z,100625.09
2023-10-09T16:42:26.136Z,100634.59
2023-10-09T16:45:28.905Z,100638.53
2023-10-09T16:48:31.730Z,100647.00
2023-10-09T16:51:34.346Z,100646.63
2023-10-09T16:54:38.212Z,100652.97
2023-10-09T16:57:42.696Z,100651.34
2023-10-09T17:00:48.080Z,100644.63
2023-10-09T17:03:56.421Z,100647.72
2023-10-09T17:07:06.337Z,100658.53
2023-10-09T17:10:16.178Z,100651.56
2023-10-09T17:13:22.376Z,100651.75
2023-10-09T17:16:26.386Z,100647.88
2023-10-09T17:19:31.164Z,100643.84
2023-10-09T17:22:34.672Z,100638.81
2023-10-09T17:25:45.761Z,100627.16
2023-10-09T17:28:50.364Z,100634.16
2023-10-09T17:31:54.368Z,100631.88
2023-10-09T17:34:58.894Z,100626.31
2023-10-09T17:38:05.734Z,100631.88
2023-10-09T17:41:12.732Z,100626.22
2023-10-09T17:44:19.610Z,100619.44
2023-10-09T17:47:23.194Z,100613.63
2023-10-09T17:50:27.768Z,100620.47
2023-10-09T17:53:31.824Z,100604.31
2023-10-09T17:56:39.132Z,100599.53
2023-10-09T17:59:45.434Z,100597.53
2023-10-09T18:02:50.501Z,100601.56
2023-10-09T18:05:55.848Z,100607.31
2023-10-09T18:09:00.714Z,100610.66
2023-10-09T18:12:09.020Z,100606.72
2023-10-09T18:15:15.944Z,100615.78
2023-10-09T18:18:21.794Z,100608.81
2023-10-09T18:21:26.668Z,100617.47
2023-10-09T18:24:31.293Z,100617.56
2023-10-09T18:27:36.302Z,100614.91
2023-10-09T18:30:46.997Z,100623.50
2023-10-09T18:33:56.476Z,100622.44
2023-10-09T18:37:01.124Z,100627.66
2023-10-09T18:40:08.997Z,100634.03
2023-10-09T18:43:16.052Z,100637.03
2023-10-09T18:46:23.952Z,100620.53
2023-10-09T18:49:30.240Z,100633.16
2023-10-09T18:52:34.840Z,100645.59
2023-10-09T18:55:39.097Z,100646.72
2023-10-09T18:58:45.692Z,100634.88
2023-10-09T19:01:50.827Z,100633.50
2023-10-09T19:05:16.549Z,100633.00
2023-10-09T19:08:22.488Z,100643.41
2023-10-09T19:11:28.852Z,100649.69
2023-10-09T19:14:32.830Z,100650.94
2023-10-09T19:17:36.836Z,100655.72
2023-10-09T19:20:44.446Z,100652.59
2023-10-09T19:23:49.046Z,100656.09
2023-10-09T19:26:53.082Z,100653.97
2023-10-09T19:29:58.592Z,100652.75
2023-10-09T19:33:07.677Z,100646.94
2023-10-09T19:36:15.845Z,100663.91
2023-10-09T19:39:21.462Z,100669.72
2023-10-09T19:42:26.223Z,100675.59
2023-10-09T19:45:31.675Z,100683.22
2023-10-09T19:48:37.701Z,100672.13
2023-10-09T19:51:42.822Z,100675.38
2023-10-09T19:54:47.034Z,100684.75
2023-10-09T19:57:50.250Z,100676.28
2023-10-09T20:00:56.877Z,100688.34
2023-10-09T20:04:00.202Z,100695.16
2023-10-09T20:07:03.467Z,100692.09
2023-10-09T20:10:08.148Z,100708.31
2023-10-09T20:13:13.330Z,100700.16
2023-10-09T20:16:18.776Z,100707.13
2023-10-09T20:19:22.445Z,100701.34
2023-10-09T20:22:25.559Z,100705.50
2023-10-09T20:25:31.502Z,100690.88
2023-10-09T20:28:38.182Z,100716.19
2023-10-09T20:31:46.082Z,100713.31
2023-10-09T20:34:50.735Z,100716.34
2023-10-09T20:38:02.999Z,100712.72
2023-10-09T20:41:09.123Z,100708.22
2023-10-09T20:44:13.868Z,100709.34
2023-10-09T20:47:16.961Z,100707.53
2023-10-09T20:50:19.998Z,100702.03
2023-10-09T20:53:22.961Z,100719.44
2023-10-09T20:56:27.654Z,100716.66
2023-10-09T20:59:30.600Z,100706.56
2023-10-09T21:02:33.846Z,100716.66
2023-10-09T21:05:38.204Z,100718.63
2023-10-09T21:08:41.838Z,100724.50
2023-10-09T21:11:45.676Z,100727.72
2023-10-09T21:14:49.624Z,100727.28
2023-10-09T21:17:53.586Z,100727.56
2023-10-09T21:20:56.542Z,100721.84
2023-10-09T21:23:59.098Z,100747.06
2023-10-09T21:27:01.852Z,100746.47
2023-10-09T21:30:05.928Z,100745.31
2023-10-09T21:33:08.796Z,100739.00
2023-10-09T21:36:11.979Z,100738.69
2023-10-09T21:39:18.953Z,100749.94
2023-10-09T21:42:21.850Z,100739.22
2023-10-09T21:45:26.052Z,100751.28
2023-10-09T21:48:29.096Z,100742.59
2023-10-09T21:51:31.922Z,100746.22
2023-10-09T21:54:34.739Z,100745.00
2023-10-09T21:57:38.960Z,100755.19
2023-10-09T22:00:47.959Z,100751.25
2023-10-09T22:03:50.827Z,100748.75
2023-10-09T22:06:53.801Z,100741.75
2023-10-09T22:09:56.616Z,100744.56
2023-10-09T22:12:59.773Z,100751.00
2023-10-09T22:16:02.515Z,100750.72
2023-10-09T22:19:14.825Z,100740.38
2023-10-09T22:22:23.721Z,100747.41
2023-10-09T22:25:26.994Z,100744.56
2023-10-09T22:28:36.346Z,100741.66
2023-10-09T22:31:40.415Z,100742.06
2023-10-09T22:34:43.862Z,100732.41
2023-10-09T22:37:46.862Z,100734.59
2023-10-09T22:40:50.261Z,100733.88
2023-10-09T22:43:55.463Z,100729.53
2023-10-09T22:46:58.414Z,100728.94
2023-10-09T22:50:18.827Z,100726.00
2023-10-09T22:53:34.223Z,100719.34
2023-10-09T22:56:38.403Z,100717.69
2023-10-09T22:59:45.931Z,100719.94
2023-10-09T23:02:58.114Z,100725.47
2023-10-09T23:06:12.949Z,100729.16
2023-10-09T23:09:17.089Z,100724.94
2023-10-09T23:12:24.275Z,100723.72
2023-10-09T23:15:36.705Z,100728.91
2023-10-09T23:19:05.689Z,100736.19
2023-10-09T23:22:09.934Z,100727.81
2023-10-09T23:25:18.902Z,100724.44
2023-10-09T23:28:40.238Z,100726.41
2023-10-09T23:31:58.342Z,100723.84
2023-10-09T23:35:00.974Z,100729.47
2023-10-09T23:38:19.240Z,100731.28
2023-10-09T23:41:22.904Z,100731.19
2023-10-09T23:44:35.883Z,100735.84
2023-10-09T23:47:42.489Z,100736.53
2023-10-09T23:50:45.671Z,100726.28
2023-10-09T23:53:54.018Z,100730.34
2023-10-09T23:57:00.574Z,100723.88
